createdAt,value
2018-11-20T00:02:29.697Z,4.80
2018-11-20T00:05:18.285Z,4.77
2018-11-20T00:08:25.161Z,4.97
2018-11-20T00:11:12.091Z,4.40
2018-11-20T00:13:49.429Z,5.93
2018-11-20T00:16:29.103Z,5.93
2018-11-20T00:19:16.337Z,7.27
2018-11-20T00:22:03.230Z,5.20
2018-11-20T00:24:54.576Z,7.07
2018-11-20T00:27:41.890Z,6.20
2018-11-20T00:30:29.164Z,5.23
2018-11-20T00:33:17.684Z,5.97
2018-11-20T00:35:58.488Z,7.93
2018-11-20T00:38:38.061Z,5.13
2018-11-20T00:41:24.989Z,5.67
2018-11-20T00:44:12.368Z,5.47
2018-11-20T00:47:00.781Z,5.37
2018-11-20T00:49:54.679Z,5.40
2018-11-20T00:52:58.396Z,5.87
2018-11-20T00:56:21.560Z,6.17
2018-11-20T00:59:21.954Z,5.73
2018-11-20T01:02:28.319Z,5.57
2018-11-20T01:05:29.335Z,5.57
2018-11-20T01:08:17.743Z,7.57
2018-11-20T01:11:09.172Z,6.23
2018-11-20T01:13:51.151Z,5.57
2018-11-20T01:16:38.404Z,5.67
2018-11-20T01:19:29.491Z,6.07
2018-11-20T01:22:16.895Z,6.03
2018-11-20T01:25:15.859Z,5.90
2018-11-20T01:28:00.621Z,6.23
2018-11-20T01:30:47.973Z,6.60
2018-11-20T01:33:35.256Z,8.50
2018-11-20T01:36:15.602Z,6.20
2018-11-20T01:39:02.858Z,7.17
2018-11-20T01:41:51.282Z,6.93
2018-11-20T01:44:45.619Z,7.40
2018-11-20T01:47:43.329Z,7.83
2018-11-20T01:50:30.358Z,7.63
2018-11-20T01:53:37.134Z,7.27
2018-11-20T01:56:24.493Z,7.67
2018-11-20T01:59:07.423Z,7.10
2018-11-20T02:01:54.326Z,7.80
2018-11-20T02:04:55.172Z,7.33
2018-11-20T02:07:49.540Z,7.83
2018-11-20T02:10:38.576Z,7.57
2018-11-20T02:14:04.045Z,7.33
2018-11-20T02:16:53.793Z,7.77
2018-11-20T02:19:41.078Z,7.50
2018-11-20T02:22:29.521Z,10.30
2018-11-20T02:25:27.162Z,7.93
2018-11-20T02:28:16.205Z,8.60
2018-11-20T02:30:54.807Z,7.73
2018-11-20T02:33:48.979Z,8.47
2018-11-20T02:36:32.619Z,10.47
2018-11-20T02:39:12.316Z,10.77
2018-11-20T02:42:06.712Z,8.80
2018-11-20T02:45:01.066Z,10.27
2018-11-20T02:47:48.349Z,10.23
2018-11-20T02:50:40.623Z,10.03
2018-11-20T02:53:27.480Z,11.87
2018-11-20T02:56:22.204Z,10.70
2018-11-20T02:59:13.427Z,12.57
2018-11-20T03:02:16.918Z,15.93
2018-11-20T03:05:05.171Z,11.97
2018-11-20T03:07:45.206Z,11.57
2018-11-20T03:10:26.757Z,11.07
2018-11-20T03:13:15.220Z,13.70
2018-11-20T03:16:07.050Z,15.07
2018-11-20T03:18:51.959Z,13.87
2018-11-20T03:21:40.463Z,16.00
2018-11-20T03:24:28.959Z,13.47
2018-11-20T03:27:20.975Z,13.60
2018-11-20T03:30:48.185Z,13.87
2018-11-20T03:33:35.522Z,13.40
2018-11-20T03:36:29.069Z,13.93
2018-11-20T03:39:20.309Z,12.93
2018-11-20T03:42:02.815Z,13.70
2018-11-20T03:44:54.167Z,14.37
2018-11-20T03:47:47.303Z,14.93
2018-11-20T03:50:34.128Z,13.00
2018-11-20T03:53:31.585Z,13.40
2018-11-20T03:56:20.079Z,14.20
2018-11-20T03:59:20.646Z,13.23
2018-11-20T04:02:21.359Z,12.57
2018-11-20T04:05:18.958Z,12.20
2018-11-20T04:08:06.398Z,13.13
2018-11-20T04:10:53.298Z,12.73
2018-11-20T04:13:56.992Z,12.97
2018-11-20T04:16:43.274Z,13.77
2018-11-20T04:19:31.744Z,11.93
2018-11-20T04:22:16.896Z,12.07
2018-11-20T04:25:08.103Z,12.27
2018-11-20T04:27:51.709Z,11.67
2018-11-20T04:31:09.462Z,12.60
2018-11-20T04:34:14.341Z,13.83
2018-11-20T04:37:26.628Z,11.67
2018-11-20T04:40:17.765Z,11.37
2018-11-20T04:43:07.139Z,12.00
2018-11-20T04:46:13.856Z,13.57
2018-11-20T04:48:54.528Z,11.40
2018-11-20T04:51:41.496Z,10.03
2018-11-20T04:54:45.220Z,13.17
2018-11-20T04:57:32.239Z,12.67
2018-11-20T05:00:26.669Z,13.33
2018-11-20T05:03:20.951Z,11.17
2018-11-20T05:06:24.271Z,12.03
2018-11-20T05:09:11.494Z,12.60
2018-11-20T05:12:02.987Z,13.63
2018-11-20T05:14:50.281Z,11.90
2018-11-20T05:17:31.101Z,14.13
2018-11-20T05:20:15.460Z,13.80
2018-11-20T05:23:08.980Z,12.83
2018-11-20T05:26:04.025Z,14.13
2018-11-20T05:28:58.550Z,13.57
2018-11-20T05:31:45.766Z,14.07
2018-11-20T05:34:34.252Z,13.87
2018-11-20T05:37:21.233Z,12.27
2018-11-20T05:40:15.784Z,13.90
2018-11-20T05:43:02.678Z,13.63
2018-11-20T05:45:54.439Z,19.33
2018-11-20T05:48:41.620Z,14.00
2018-11-20T05:51:27.448Z,15.23
2018-11-20T05:54:18.724Z,13.60
2018-11-20T05:56:55.558Z,13.70
2018-11-20T05:59:42.625Z,14.33
2018-11-20T06:02:42.890Z,13.90
2018-11-20T06:05:34.468Z,13.30
2018-11-20T06:08:40.972Z,12.33
2018-11-20T06:11:34.170Z,13.73
2018-11-20T06:14:21.468Z,14.43
2018-11-20T06:17:08.630Z,14.03
2018-11-20T06:20:06.022Z,66.37
2018-11-20T06:22:50.631Z,27.63
2018-11-20T06:25:39.166Z,16.53
2018-11-20T06:28:36.517Z,16.57
2018-11-20T06:31:27.729Z,14.87
2018-11-20T06:34:14.976Z,13.13
2018-11-20T06:37:02.352Z,13.93
2018-11-20T06:39:49.690Z,13.23
2018-11-20T06:42:50.221Z,15.23
2018-11-20T06:45:39.265Z,12.47
2018-11-20T06:48:26.295Z,15.20
2018-11-20T06:51:13.427Z,14.73
2018-11-20T06:54:08.454Z,15.90
2018-11-20T06:56:58.358Z,16.10
2018-11-20T06:59:49.912Z,14.23
2018-11-20T07:02:37.084Z,15.57
2018-11-20T07:05:16.016Z,13.87
2018-11-20T07:07:53.864Z,16.23
2018-11-20T07:10:47.047Z,14.73
2018-11-20T07:13:39.354Z,16.00
2018-11-20T07:16:54.594Z,17.60
2018-11-20T07:19:45.619Z,16.07
2018-11-20T07:22:33.682Z,18.20
2018-11-20T07:25:22.279Z,18.30
2018-11-20T07:28:19.495Z,15.87
2018-11-20T07:31:06.542Z,17.90
2018-11-20T07:33:57.640Z,16.17
2018-11-20T07:36:45.028Z,16.60
2018-11-20T07:39:27.752Z,15.83
2018-11-20T07:42:05.482Z,17.43
2018-11-20T07:44:59.769Z,16.27
2018-11-20T07:48:03.754Z,16.97
2018-11-20T07:50:56.488Z,17.23
2018-11-20T07:53:53.727Z,15.50
2018-11-20T07:56:40.780Z,20.50
2018-11-20T07:59:28.214Z,16.10
2018-11-20T08:02:09.425Z,14.57
2018-11-20T08:04:58.413Z,16.57
2018-11-20T08:07:53.105Z,14.87
2018-11-20T08:10:40.104Z,17.57
2018-11-20T08:13:20.525Z,16.60
2018-11-20T08:16:04.379Z,17.57
2018-11-20T08:18:47.592Z,15.87
2018-11-20T08:21:37.321Z,17.17
2018-11-20T08:24:24.656Z,15.17
2018-11-20T08:27:03.292Z,18.40
2018-11-20T08:29:54.763Z,17.07
2018-11-20T08:32:41.941Z,19.07
2018-11-20T08:35:45.703Z,18.60
2018-11-20T08:38:34.351Z,15.87
2018-11-20T08:41:37.987Z,17.17
2018-11-20T08:44:35.514Z,18.20
2018-11-20T08:47:22.873Z,17.23
2018-11-20T08:50:10.303Z,16.90
2018-11-20T08:53:05.067Z,18.93
2018-11-20T08:56:02.852Z,19.93
2018-11-20T08:59:06.534Z,18.63
2018-11-20T09:01:55.162Z,20.23
2018-11-20T09:04:46.771Z,21.40
2018-11-20T09:07:47.274Z,23.47
2018-11-20T09:10:51.004Z,25.60
2018-11-20T09:13:37.992Z,19.93
2018-11-20T09:16:19.205Z,20.43
2018-11-20T09:19:06.234Z,24.53
2018-11-20T09:22:00.788Z,23.97
2018-11-20T09:24:37.604Z,25.03
2018-11-20T09:27:23.319Z,24.43
2018-11-20T09:30:30.606Z,22.43
2018-11-20T09:33:07.603Z,25.07
2018-11-20T09:35:59.244Z,25.63
2018-11-20T09:38:46.341Z,26.43
2018-11-20T09:41:33.673Z,21.13
2018-11-20T09:45:19.064Z,24.20
2018-11-20T09:48:03.407Z,23.77
2018-11-20T09:50:45.673Z,25.47
2018-11-20T09:53:29.764Z,27.60
2018-11-20T09:56:30.610Z,23.70
2018-11-20T09:59:19.332Z,25.77
2018-11-20T10:02:10.956Z,25.73
2018-11-20T10:05:04.164Z,24.63
2018-11-20T10:07:51.393Z,21.47
2018-11-20T10:10:42.857Z,27.03
2018-11-20T10:13:30.022Z,23.90
2018-11-20T10:16:20.890Z,25.73
2018-11-20T10:19:18.634Z,26.57
2018-11-20T10:22:06.094Z,25.97
2018-11-20T10:25:12.933Z,23.63
2018-11-20T10:28:00.217Z,26.43
2018-11-20T10:30:48.801Z,28.33
2018-11-20T10:33:37.524Z,22.93
2018-11-20T10:36:44.382Z,27.67
2018-11-20T10:39:32.871Z,26.30
2018-11-20T10:42:21.446Z,28.23
2018-11-20T10:45:12.748Z,27.17
2018-11-20T10:48:04.238Z,30.33
2018-11-20T10:50:51.482Z,29.80
2018-11-20T10:53:40.581Z,29.53
2018-11-20T10:56:32.181Z,27.50
2018-11-20T10:59:38.668Z,26.90
2018-11-20T11:02:26.417Z,32.03
2018-11-20T11:05:13.655Z,29.33
2018-11-20T11:08:08.693Z,28.23
2018-11-20T11:11:12.019Z,25.70
2018-11-20T11:13:59.409Z,26.10
2018-11-20T11:16:45.514Z,27.63
2018-11-20T11:19:40.108Z,27.50
2018-11-20T11:22:25.795Z,27.80
2018-11-20T11:25:32.585Z,26.57
2018-11-20T11:28:19.790Z,25.90
2018-11-20T11:31:26.605Z,28.43
2018-11-20T11:34:15.157Z,25.23
2018-11-20T11:37:02.694Z,25.53
2018-11-20T11:39:53.494Z,24.47
2018-11-20T11:42:57.190Z,25.50
2018-11-20T11:45:44.462Z,26.37
2018-11-20T11:48:36.110Z,28.23
2018-11-20T11:51:27.609Z,26.53
2018-11-20T11:54:22.449Z,26.67
2018-11-20T11:57:09.728Z,27.23
2018-11-20T11:59:57.102Z,27.57
2018-11-20T12:05:47.010Z,28.43
2018-11-20T12:08:50.713Z,24.33
2018-11-20T12:11:42.306Z,21.87
2018-11-20T12:14:29.454Z,28.37
2018-11-20T12:17:30.130Z,25.30
2018-11-20T12:20:17.399Z,26.07
2018-11-20T12:23:21.193Z,27.27
2018-11-20T12:26:00.800Z,27.23
2018-11-20T12:28:51.094Z,26.47
2018-11-20T12:31:34.784Z,24.60
2018-11-20T12:34:29.249Z,25.03
2018-11-20T12:37:24.565Z,23.97
2018-11-20T12:40:10.742Z,24.23
2018-11-20T12:42:53.843Z,24.13
2018-11-20T12:45:53.895Z,27.30
2018-11-20T12:48:40.944Z,25.47
2018-11-20T12:51:27.853Z,26.70
2018-11-20T12:54:25.385Z,26.43
2018-11-20T12:57:14.060Z,26.13
2018-11-20T13:00:16.725Z,25.07
2018-11-20T13:03:13.913Z,29.67
2018-11-20T13:06:01.340Z,25.67
2018-11-20T13:09:00.916Z,26.53
2018-11-20T13:11:46.425Z,26.20
2018-11-20T13:14:33.826Z,25.27
2018-11-20T13:17:40.635Z,28.83
2018-11-20T13:20:29.525Z,27.23
2018-11-20T13:23:16.311Z,27.63
2018-11-20T13:25:54.569Z,25.40
2018-11-20T13:28:41.729Z,25.77
2018-11-20T13:31:24.618Z,27.83
2018-11-20T13:34:13.201Z,25.70
2018-11-20T13:36:56.036Z,24.17
2018-11-20T13:39:39.971Z,24.37
2018-11-20T13:42:31.857Z,25.27
2018-11-20T13:45:18.422Z,26.07
2018-11-20T13:48:01.331Z,26.60
2018-11-20T13:50:51.855Z,24.93
2018-11-20T13:53:28.148Z,24.57
2018-11-20T13:56:28.619Z,26.20
2018-11-20T13:59:16.132Z,26.40
2018-11-20T14:02:03.359Z,26.77
2018-11-20T14:04:50.643Z,24.10
2018-11-20T14:07:37.862Z,26.40
2018-11-20T14:10:37.563Z,26.30
2018-11-20T14:13:35.070Z,26.70
2018-11-20T14:16:22.271Z,26.83
2018-11-20T14:19:28.584Z,25.07
2018-11-20T14:22:15.671Z,24.97
2018-11-20T14:25:23.584Z,27.33
2018-11-20T14:28:14.278Z,27.77
2018-11-20T14:30:59.209Z,24.73
2018-11-20T14:33:56.906Z,27.77
2018-11-20T14:36:51.259Z,26.77
2018-11-20T14:39:36.679Z,26.97
2018-11-20T14:42:23.668Z,27.13
2018-11-20T14:45:15.012Z,29.23
2018-11-20T14:48:01.957Z,24.67
2018-11-20T14:50:55.029Z,27.63
2018-11-20T14:53:41.988Z,28.50
2018-11-20T14:56:18.808Z,21.87
2018-11-20T14:59:05.999Z,27.77
2018-11-20T15:02:06.428Z,25.17
2018-11-20T15:04:54.925Z,25.80
2018-11-20T15:08:05.215Z,33.40
2018-11-20T15:10:56.529Z,28.07
2018-11-20T15:13:51.528Z,26.83
2018-11-20T15:16:40.038Z,28.37
2018-11-20T15:19:46.799Z,29.80
2018-11-20T15:22:38.204Z,30.97
2018-11-20T15:25:29.845Z,27.70
2018-11-20T15:28:14.097Z,28.57
2018-11-20T15:31:14.078Z,29.30
2018-11-20T15:34:17.807Z,27.57
2018-11-20T15:37:06.423Z,29.77
2018-11-20T15:39:57.860Z,29.37
2018-11-20T15:42:44.805Z,29.33
2018-11-20T15:45:32.363Z,31.77
2018-11-20T15:48:26.525Z,37.20
2018-11-20T15:51:13.750Z,29.87
2018-11-20T15:54:11.184Z,28.93
2018-11-20T15:56:58.471Z,33.63
2018-11-20T15:59:56.029Z,30.33
2018-11-20T16:02:36.298Z,33.47
2018-11-20T16:05:31.281Z,29.83
2018-11-20T16:08:34.678Z,31.30
2018-11-20T16:11:28.965Z,32.63
2018-11-20T16:14:15.934Z,33.90
2018-11-20T16:17:22.430Z,31.07
2018-11-20T16:20:10.988Z,38.60
2018-11-20T16:23:05.595Z,33.13
2018-11-20T16:25:45.690Z,39.80
2018-11-20T16:28:46.128Z,37.67
2018-11-20T16:31:41.879Z,34.50
2018-11-20T16:34:48.539Z,31.47
2018-11-20T16:37:35.894Z,30.63
2018-11-20T16:40:24.065Z,35.57
2018-11-20T16:43:11.571Z,34.20
2018-11-20T16:45:54.658Z,35.40
2018-11-20T16:48:49.181Z,34.87
2018-11-20T16:51:36.544Z,39.90
2018-11-20T16:54:27.815Z,34.60
2018-11-20T16:57:14.806Z,37.47
2018-11-20T17:00:06.297Z,35.70
2018-11-20T17:03:00.399Z,37.37
2018-11-20T17:06:01.012Z,38.47
2018-11-20T17:08:55.368Z,34.20
2018-11-20T17:11:53.011Z,35.13
2018-11-20T17:14:56.705Z,36.20
2018-11-20T17:17:45.274Z,33.30
2018-11-20T17:20:33.373Z,36.00
2018-11-20T17:23:21.955Z,32.43
2018-11-20T17:26:00.147Z,33.37
2018-11-20T17:28:47.092Z,34.20
2018-11-20T17:31:34.406Z,34.03
2018-11-20T17:34:25.694Z,33.17
2018-11-20T17:37:22.973Z,32.53
2018-11-20T17:40:20.943Z,32.23
2018-11-20T17:43:14.970Z,35.03
2018-11-20T17:46:06.864Z,34.43
2018-11-20T17:48:49.096Z,31.67
2018-11-20T17:51:37.580Z,30.30
2018-11-20T17:54:27.263Z,34.37
2018-11-20T17:57:21.641Z,27.93
2018-11-20T18:00:12.856Z,34.37
2018-11-20T18:03:01.246Z,35.13
2018-11-20T18:05:58.994Z,32.43
2018-11-20T18:08:53.036Z,30.90
2018-11-20T18:11:40.106Z,30.83
2018-11-20T18:14:27.337Z,31.30
2018-11-20T18:17:20.126Z,29.37
2018-11-20T18:20:06.026Z,28.17
2018-11-20T18:22:54.503Z,35.80
2018-11-20T18:25:43.670Z,29.67
2018-11-20T18:28:23.667Z,32.27
2018-11-20T18:31:21.208Z,28.50
2018-11-20T18:34:18.762Z,29.53
2018-11-20T18:37:08.124Z,31.77
2018-11-20T18:39:56.589Z,28.87
2018-11-20T18:42:43.642Z,29.77
2018-11-20T18:45:31.032Z,27.90
2018-11-20T18:51:30.965Z,26.67
2018-11-20T18:54:18.397Z,28.63
2018-11-20T18:57:09.871Z,30.80
2018-11-20T19:00:04.621Z,28.80
2018-11-20T19:02:55.975Z,29.27
2018-11-20T19:05:43.235Z,28.77
2018-11-20T19:08:31.786Z,28.03
2018-11-20T19:11:19.264Z,29.57
2018-11-20T19:14:06.701Z,26.37
2018-11-20T19:16:53.872Z,25.60
2018-11-20T19:19:54.701Z,27.47
2018-11-20T19:22:41.731Z,28.27
2018-11-20T19:25:45.539Z,27.67
2018-11-20T19:28:45.979Z,27.67
2018-11-20T19:31:53.023Z,31.00
2018-11-20T19:34:34.039Z,25.23
2018-11-20T19:37:25.396Z,28.50
2018-11-20T19:40:09.869Z,25.80
2018-11-20T19:43:01.339Z,27.37
2018-11-20T19:45:58.863Z,25.90
2018-11-20T19:48:51.839Z,26.60
2018-11-20T19:52:00.771Z,26.97
2018-11-20T19:54:43.788Z,26.47
2018-11-20T19:57:48.304Z,22.57
2018-11-20T20:00:30.382Z,22.43
2018-11-20T20:03:31.049Z,23.20
2018-11-20T20:06:18.162Z,23.73
2018-11-20T20:09:05.360Z,23.97
2018-11-20T20:12:08.310Z,24.73
2018-11-20T20:14:59.533Z,26.73
2018-11-20T20:17:50.914Z,22.37
2018-11-20T20:20:38.104Z,23.43
2018-11-20T20:23:25.450Z,19.83
2018-11-20T20:26:20.105Z,19.47
2018-11-20T20:29:23.453Z,21.13
2018-11-20T20:32:17.640Z,21.30
2018-11-20T20:35:05.117Z,22.03
2018-11-20T20:37:52.531Z,24.10
2018-11-20T20:40:59.375Z,24.63
2018-11-20T20:43:46.629Z,19.93
2018-11-20T20:46:34.068Z,23.03
2018-11-20T20:49:28.450Z,24.93
2018-11-20T20:52:15.875Z,23.43
2018-11-20T20:55:03.214Z,24.97
2018-11-20T20:58:03.942Z,26.13
2018-11-20T21:00:51.313Z,23.30
2018-11-20T21:03:40.371Z,23.50
2018-11-20T21:06:31.840Z,23.33
2018-11-20T21:09:19.121Z,23.30
2018-11-20T21:12:13.832Z,24.93
2018-11-20T21:15:05.084Z,23.10
2018-11-20T21:17:51.963Z,24.03
2018-11-20T21:20:46.570Z,25.53
2018-11-20T21:23:37.671Z,25.63
2018-11-20T21:26:26.278Z,22.90
2018-11-20T21:29:13.599Z,23.47
2018-11-20T21:32:11.209Z,24.20
2018-11-20T21:35:02.659Z,21.97
2018-11-20T21:37:49.803Z,19.47
2018-11-20T21:40:32.272Z,23.40
2018-11-20T21:43:23.753Z,20.57
2018-11-20T21:46:12.400Z,23.33
2018-11-20T21:49:10.230Z,22.23
2018-11-20T21:51:58.725Z,21.60
2018-11-20T21:54:50.152Z,22.63
2018-11-20T21:57:41.357Z,23.50
2018-11-20T22:00:48.958Z,21.10
2018-11-20T22:03:36.111Z,25.07
2018-11-20T22:07:19.890Z,24.23
2018-11-20T22:10:06.431Z,24.33
2018-11-20T22:12:52.677Z,21.90
2018-11-20T22:15:39.051Z,22.27
2018-11-20T22:18:25.365Z,24.67
2018-11-20T22:21:15.583Z,24.23
2018-11-20T22:24:02.130Z,26.50
2018-11-20T22:26:58.418Z,26.37
2018-11-20T22:29:49.167Z,24.97
2018-11-20T22:32:35.705Z,24.30
2018-11-20T22:35:16.131Z,22.90
2018-11-20T22:38:04.307Z,23.07
2018-11-20T22:40:50.473Z,23.50
2018-11-20T22:43:53.053Z,24.20
2018-11-20T22:46:38.586Z,25.33
2018-11-20T22:49:25.266Z,25.13
2018-11-20T22:52:13.098Z,24.60
2018-11-20T22:55:12.946Z,25.53
2018-11-20T22:57:59.115Z,26.67
2018-11-20T23:00:45.236Z,24.27
2018-11-20T23:03:41.771Z,22.97
2018-11-20T23:06:30.982Z,27.43
2018-11-20T23:08:59.533Z,29.10
2018-11-20T23:11:28.046Z,30.43
2018-11-20T23:13:56.549Z,28.00
2018-11-20T23:16:25.089Z,32.60
2018-11-20T23:18:53.561Z,29.07
2018-11-20T23:21:23.245Z,30.40
2018-11-20T23:23:50.668Z,28.23
2018-11-20T23:26:19.290Z,32.10
2018-11-20T23:28:47.768Z,27.33
2018-11-20T23:31:16.276Z,27.80
2018-11-20T23:33:44.806Z,29.70
2018-11-20T23:36:13.404Z,28.13
2018-11-20T23:38:41.932Z,30.13
2018-11-20T23:41:10.561Z,27.47
2018-11-20T23:43:39.049Z,28.27
2018-11-20T23:46:07.654Z,29.53
2018-11-20T23:48:36.149Z,29.80
2018-11-20T23:51:04.771Z,26.87
2018-11-20T23:53:33.289Z,30.07
2018-11-20T23:56:01.834Z,30.17
2018-11-20T23:58:30.370Z,30.17
